Time;durP1;ratioP1;P1;durP2;ratioP2;P2;SDS_P1;SDS_P2;PMS_P1;PMS_P2;Temp;Humidity;BMP_temperature;BMP_pressure;BME280_temperature;BME280_humidity;BME280_pressure;Samples;Min_cycle;Max_cycle;Signal;HPM_P1;HPM_P2
2023/07/29 00:01:31;;;;;;;4.40;3.17;;;19.70;86.80;;;;;;4938296;28;20097;-60
2023/07/29 00:03:56;;;;;;;4.57;2.80;;;19.70;86.70;;;;;;4939566;28;20042;-58
2023/07/29 00:06:22;;;;;;;3.83;2.42;;;19.60;86.60;;;;;;4939456;28;21889;-61
2023/07/29 00:08:48;;;;;;;3.38;2.83;;;19.60;86.60;;;;;;4938254;28;20039;-59
2023/07/29 00:11:13;;;;;;;4.68;3.40;;;19.50;86.60;;;;;;4939125;28;20703;-60
2023/07/29 00:13:39;;;;;;;3.15;2.88;;;19.50;86.70;;;;;;4939712;28;20558;-60
2023/07/29 00:16:05;;;;;;;3.50;2.78;;;19.40;86.90;;;;;;4937715;28;20149;-60
2023/07/29 00:18:31;;;;;;;2.90;2.70;;;19.40;87.10;;;;;;4940627;28;20035;-59
2023/07/29 00:20:57;;;;;;;2.90;2.70;;;19.30;87.10;;;;;;4937762;28;20050;-60
2023/07/29 00:23:23;;;;;;;3.47;2.65;;;19.40;87.30;;;;;;4938894;28;20050;-59
2023/07/29 00:25:49;;;;;;;3.42;3.00;;;19.30;87.40;;;;;;4938519;28;20119;-60
2023/07/29 00:28:14;;;;;;;6.57;3.10;;;19.30;87.30;;;;;;4935799;28;20526;-61
2023/07/29 00:30:40;;;;;;;3.58;2.72;;;19.30;87.30;;;;;;4938555;28;20032;-60
2023/07/29 00:33:05;;;;;;;2.83;2.50;;;19.30;87.20;;;;;;4938194;28;20418;-60
2023/07/29 00:35:31;;;;;;;4.05;2.47;;;19.20;87.30;;;;;;4937866;28;20130;-60
2023/07/29 00:37:57;;;;;;;2.95;2.60;;;19.20;87.30;;;;;;4936011;28;20031;-58
2023/07/29 00:40:23;;;;;;;2.60;2.40;;;19.20;87.40;;;;;;4940552;28;20051;-61
2023/07/29 00:42:50;;;;;;;4.68;2.72;;;19.20;87.40;;;;;;4938534;28;20502;-60
2023/07/29 00:45:15;;;;;;;3.88;2.20;;;19.20;87.30;;;;;;4938580;28;20039;-59
2023/07/29 00:47:42;;;;;;;3.13;2.80;;;19.20;87.30;;;;;;4939107;28;20408;-61
2023/07/29 00:50:12;;;;;;;3.70;2.72;;;19.20;87.40;;;;;;4937465;28;20039;-60
2023/07/29 00:52:37;;;;;;;3.55;2.83;;;19.20;87.40;;;;;;4937361;28;20614;-59
2023/07/29 00:55:05;;;;;;;2.78;2.53;;;19.20;87.50;;;;;;4939259;28;20032;-60
2023/07/29 00:57:31;;;;;;;3.65;2.60;;;19.20;87.60;;;;;;4939078;28;20028;-59
2023/07/29 00:59:57;;;;;;;4.30;3.00;;;19.30;87.50;;;;;;4939264;28;20050;-58
2023/07/29 01:02:23;;;;;;;3.47;2.90;;;19.30;87.60;;;;;;4940725;28;20047;-60
2023/07/29 01:04:56;;;;;;;5.18;2.80;;;19.30;87.70;;;;;;4936507;28;20035;-60
2023/07/29 01:07:42;;;;;;;2.75;2.55;;;19.30;88.30;;;;;;4937766;28;20046;-59
2023/07/29 01:10:10;;;;;;;4.20;2.78;;;19.30;88.30;;;;;;4939616;28;20040;-60
2023/07/29 01:12:40;;;;;;;3.97;2.72;;;19.30;88.00;;;;;;4937452;28;20289;-59
2023/07/29 01:15:36;;;;;;;3.63;2.88;;;19.30;88.10;;;;;;4938139;28;20118;-60
2023/07/29 01:18:10;;;;;;;3.85;2.88;;;19.20;88.70;;;;;;4937351;28;20031;-59
2023/07/29 01:20:38;;;;;;;;;;;19.20;88.50;;;;;;4938755;28;20081;-59
2023/07/29 01:23:04;;;;;;;2.90;2.70;;;19.30;88.70;;;;;;4936736;28;19923;-59
2023/07/29 01:25:29;;;;;;;3.47;3.15;;;19.20;87.60;;;;;;4936453;28;20031;-61
2023/07/29 01:27:56;;;;;;;2.78;2.50;;;19.20;87.80;;;;;;4936792;28;20415;-61
2023/07/29 01:30:37;;;;;;;3.22;2.60;;;19.20;87.90;;;;;;4938940;28;20130;-59
2023/07/29 01:33:27;;;;;;;5.03;2.47;;;19.20;88.80;;;;;;4937809;28;20054;-62
2023/07/29 01:35:56;;;;;;;3.03;2.35;;;19.20;88.20;;;;;;4938197;28;20040;-60
2023/07/29 01:38:34;;;;;;;6.35;2.70;;;19.20;88.40;;;;;;4937253;28;20070;-59
2023/07/29 01:41:01;;;;;;;3.75;3.30;;;19.20;88.30;;;;;;4936240;28;20115;-60
2023/07/29 01:43:31;;;;;;;3.58;2.95;;;19.20;88.10;;;;;;4936986;28;20047;-59
2023/07/29 01:45:57;;;;;;;3.03;2.80;;;19.20;88.20;;;;;;4936731;28;20090;-60
2023/07/29 01:48:23;;;;;;;3.10;2.75;;;19.10;88.40;;;;;;4933525;28;20035;-59
2023/07/29 01:50:48;;;;;;;5.55;2.60;;;19.10;88.70;;;;;;4936721;28;20051;-61
2023/07/29 01:53:14;;;;;;;4.32;2.72;;;19.10;88.90;;;;;;4938402;28;20122;-61
2023/07/29 01:55:40;;;;;;;3.60;3.00;;;19.10;89.00;;;;;;4938288;28;20039;-60
2023/07/29 01:58:05;;;;;;;2.85;2.63;;;19.10;89.10;;;;;;4937369;28;20063;-59
2023/07/29 02:00:31;;;;;;;3.75;2.70;;;19.10;89.10;;;;;;4936136;28;20038;-59
2023/07/29 02:02:56;;;;;;;3.22;2.92;;;19.10;89.10;;;;;;4937530;28;20086;-58
2023/07/29 02:05:22;;;;;;;6.57;3.03;;;19.20;89.20;;;;;;4938596;28;20036;-61
2023/07/29 02:07:48;;;;;;;3.22;2.90;;;19.20;89.20;;;;;;4935661;28;20519;-61
2023/07/29 02:10:14;;;;;;;3.38;2.90;;;19.20;89.10;;;;;;4937981;28;20035;-60
2023/07/29 02:12:39;;;;;;;3.38;2.90;;;19.20;89.00;;;;;;4936092;28;20540;-60
2023/07/29 02:15:06;;;;;;;3.60;3.15;;;19.20;88.80;;;;;;4937118;28;20083;-61
2023/07/29 02:17:31;;;;;;;5.57;2.95;;;19.10;88.80;;;;;;4935948;28;20118;-60
2023/07/29 02:19:57;;;;;;;3.47;2.78;;;19.10;88.80;;;;;;4936282;28;20143;-59
2023/07/29 02:22:22;;;;;;;3.20;2.83;;;19.10;88.70;;;;;;4937141;28;20046;-59
2023/07/29 02:24:48;;;;;;;2.90;2.60;;;19.10;88.60;;;;;;4933312;28;20466;-60
2023/07/29 02:27:13;;;;;;;3.03;2.55;;;19.10;88.50;;;;;;4934428;28;21035;-60
2023/07/29 02:29:39;;;;;;;3.28;2.60;;;19.10;88.50;;;;;;4937985;28;20039;-58
2023/07/29 02:32:05;;;;;;;2.90;2.70;;;19.10;88.30;;;;;;4937794;28;20062;-60
2023/07/29 02:34:31;;;;;;;3.53;2.72;;;19.10;88.10;;;;;;4935765;28;20101;-59
2023/07/29 02:36:56;;;;;;;3.38;2.50;;;19.00;87.80;;;;;;4935571;28;20039;-61
2023/07/29 02:39:23;;;;;;;2.97;2.63;;;19.00;87.50;;;;;;4936625;28;20071;-59
2023/07/29 02:41:48;;;;;;;2.90;2.70;;;19.00;87.50;;;;;;4936601;28;20038;-59
2023/07/29 02:44:14;;;;;;;3.88;2.55;;;19.00;87.40;;;;;;4936088;28;20031;-61
2023/07/29 02:46:40;;;;;;;2.95;2.45;;;18.90;87.20;;;;;;4938101;28;20043;-61
2023/07/29 02:49:05;;;;;;;2.83;2.45;;;18.90;87.30;;;;;;4936037;28;20038;-60
2023/07/29 02:51:31;;;;;;;2.95;2.40;;;18.90;87.30;;;;;;4936877;28;20058;-60
2023/07/29 02:53:57;;;;;;;2.95;2.40;;;18.80;87.30;;;;;;4937270;28;20537;-59
2023/07/29 02:56:23;;;;;;;2.80;2.28;;;18.80;87.30;;;;;;4937057;28;20122;-59
2023/07/29 02:58:48;;;;;;;3.15;2.55;;;18.70;87.40;;;;;;4937330;28;20134;-59
2023/07/29 03:01:14;;;;;;;2.92;2.28;;;18.70;87.50;;;;;;4937723;28;20519;-60
2023/07/29 03:03:40;;;;;;;4.03;2.67;;;18.70;87.60;;;;;;4940483;28;20044;-61
2023/07/29 03:06:10;;;;;;;2.80;2.60;;;18.70;87.60;;;;;;4941074;28;20098;-59
2023/07/29 03:08:36;;;;;;;3.47;2.40;;;18.60;87.80;;;;;;4940707;28;20385;-60
2023/07/29 03:11:10;;;;;;;3.22;2.90;;;18.60;87.60;;;;;;4942323;28;20051;-59
2023/07/29 03:13:37;;;;;;;2.63;2.42;;;18.60;87.80;;;;;;4943144;28;20043;-60
2023/07/29 03:16:10;;;;;;;4.70;2.60;;;18.60;87.60;;;;;;4939840;29;20050;-60
2023/07/29 03:18:36;;;;;;;4.72;2.88;;;18.60;88.00;;;;;;4940868;28;20444;-59
2023/07/29 03:21:02;;;;;;;2.88;2.60;;;18.60;87.90;;;;;;4940224;28;20194;-59
2023/07/29 03:23:29;;;;;;;2.63;2.42;;;18.50;88.10;;;;;;4940893;28;20102;-61
2023/07/29 03:25:58;;;;;;;2.80;2.60;;;18.50;88.30;;;;;;4939874;28;20046;-59
2023/07/29 03:28:26;;;;;;;3.60;2.90;;;18.40;88.50;;;;;;4938575;28;20134;-59
2023/07/29 03:30:51;;;;;;;2.95;2.75;;;18.40;88.50;;;;;;4940143;28;20149;-59
2023/07/29 03:33:17;;;;;;;2.88;2.60;;;18.40;88.70;;;;;;4942051;28;20423;-62
2023/07/29 03:35:44;;;;;;;2.60;2.40;;;18.50;88.70;;;;;;4938396;28;20035;-59
2023/07/29 03:38:13;;;;;;;2.53;2.20;;;18.50;88.70;;;;;;4938182;28;20510;-59
2023/07/29 03:40:39;;;;;;;4.32;2.13;;;18.50;88.70;;;;;;4938510;28;20479;-61
2023/07/29 03:43:05;;;;;;;3.80;2.33;;;18.50;88.70;;;;;;4938544;28;20035;-60
2023/07/29 03:45:31;;;;;;;3.60;2.40;;;18.50;88.70;;;;;;4940830;28;20031;-62
2023/07/29 03:47:57;;;;;;;3.00;2.10;;;18.60;88.60;;;;;;4939966;28;20031;-60
2023/07/29 03:50:22;;;;;;;2.20;2.10;;;18.50;88.40;;;;;;4938316;28;20040;-60
2023/07/29 03:52:48;;;;;;;2.22;2.03;;;18.60;88.30;;;;;;4936480;28;20331;-60
2023/07/29 03:55:13;;;;;;;2.72;2.00;;;18.50;88.30;;;;;;4939505;28;20067;-61
2023/07/29 03:57:39;;;;;;;3.05;2.40;;;18.60;88.50;;;;;;4938989;28;20058;-62
2023/07/29 04:00:05;;;;;;;3.80;2.10;;;18.50;88.40;;;;;;4941328;28;20122;-61
2023/07/29 04:02:31;;;;;;;4.13;1.92;;;18.60;88.30;;;;;;4938193;28;20541;-60
2023/07/29 04:04:57;;;;;;;2.55;1.80;;;18.60;88.30;;;;;;4939218;28;20047;-61
2023/07/29 04:07:22;;;;;;;3.30;2.25;;;18.60;88.40;;;;;;4937519;28;20039;-59
2023/07/29 04:09:49;;;;;;;2.58;1.90;;;18.60;89.30;;;;;;4939474;28;20062;-61
2023/07/29 04:12:14;;;;;;;2.20;2.00;;;18.60;88.60;;;;;;4936768;28;20122;-59
2023/07/29 04:14:40;;;;;;;2.58;2.30;;;18.60;88.60;;;;;;4939474;28;20175;-60
2023/07/29 04:17:06;;;;;;;2.58;2.33;;;18.60;88.80;;;;;;4937850;28;20066;-59
2023/07/29 04:19:32;;;;;;;2.30;2.10;;;18.60;88.80;;;;;;4938743;28;20047;-60
2023/07/29 04:21:58;;;;;;;2.83;2.50;;;18.60;88.80;;;;;;4940806;28;20077;-58
2023/07/29 04:24:23;;;;;;;3.60;2.38;;;18.60;89.00;;;;;;4938379;28;20285;-61
2023/07/29 04:26:49;;;;;;;2.78;2.35;;;18.60;89.20;;;;;;4934607;28;20035;-60
2023/07/29 04:29:15;;;;;;;2.63;2.42;;;18.60;89.30;;;;;;4939420;28;20507;-59
2023/07/29 04:31:40;;;;;;;5.63;2.70;;;18.60;89.40;;;;;;4940740;28;20042;-61
2023/07/29 04:34:06;;;;;;;2.60;2.40;;;18.50;89.50;;;;;;4938234;28;20146;-59
2023/07/29 04:36:32;;;;;;;2.75;2.42;;;18.60;89.60;;;;;;4939149;28;20122;-62
2023/07/29 04:38:57;;;;;;;6.22;2.83;;;18.60;89.70;;;;;;4938282;28;20036;-59
2023/07/29 04:41:23;;;;;;;3.08;2.78;;;18.70;89.80;;;;;;4936318;28;20455;-60
2023/07/29 04:43:49;;;;;;;2.95;2.75;;;18.70;90.00;;;;;;4939193;29;20031;-61
2023/07/29 04:46:15;;;;;;;3.15;2.85;;;18.60;90.00;;;;;;4938869;28;20526;-60
2023/07/29 04:48:41;;;;;;;3.20;2.90;;;18.70;90.00;;;;;;4937938;28;20047;-61
2023/07/29 04:51:06;;;;;;;4.07;2.85;;;18.70;90.10;;;;;;4938293;28;20399;-59
2023/07/29 04:53:32;;;;;;;3.45;2.70;;;18.70;90.60;;;;;;4934742;28;20130;-61
2023/07/29 04:55:58;;;;;;;3.10;2.85;;;18.70;90.40;;;;;;4937891;28;20467;-61
2023/07/29 04:58:24;;;;;;;3.08;2.78;;;18.70;90.40;;;;;;4938548;28;20087;-62
2023/07/29 05:00:49;;;;;;;2.83;2.60;;;18.70;90.40;;;;;;4938049;28;20059;-60
2023/07/29 05:03:15;;;;;;;2.80;2.60;;;18.70;90.30;;;;;;4939024;28;20550;-59
2023/07/29 05:05:40;;;;;;;3.30;2.97;;;18.80;90.30;;;;;;4938612;28;20082;-59
2023/07/29 05:08:06;;;;;;;3.97;3.40;;;18.90;90.30;;;;;;4940607;28;20115;-59
2023/07/29 05:10:32;;;;;;;3.13;2.83;;;18.90;90.30;;;;;;4940540;28;20036;-61
2023/07/29 05:12:57;;;;;;;4.03;2.72;;;18.80;90.30;;;;;;4937984;28;20043;-59
2023/07/29 05:15:23;;;;;;;3.22;2.80;;;18.80;90.20;;;;;;4937779;28;20040;-62
2023/07/29 05:17:48;;;;;;;3.60;3.30;;;18.90;90.70;;;;;;4939719;28;20126;-59
2023/07/29 05:20:14;;;;;;;5.30;4.32;;;18.80;90.40;;;;;;4938709;28;20503;-60
2023/07/29 05:22:39;;;;;;;3.97;3.35;;;18.90;90.50;;;;;;4936891;28;20423;-59
2023/07/29 05:25:05;;;;;;;3.58;3.28;;;18.90;90.50;;;;;;4936624;28;20043;-61
2023/07/29 05:27:31;;;;;;;3.40;3.10;;;18.90;90.60;;;;;;4937011;28;20198;-59
2023/07/29 05:29:57;;;;;;;3.10;2.80;;;18.90;90.70;;;;;;4939375;28;20042;-59
2023/07/29 05:32:22;;;;;;;6.78;3.22;;;18.90;90.70;;;;;;4920059;29;20459;-58
2023/07/29 05:34:48;;;;;;;3.45;2.78;;;18.90;90.80;;;;;;4936103;28;20059;-60
2023/07/29 05:37:13;;;;;;;3.45;2.85;;;19.00;90.90;;;;;;4938976;28;20067;-60
2023/07/29 05:39:39;;;;;;;3.08;2.40;;;19.00;90.80;;;;;;4937863;28;20055;-61
2023/07/29 05:42:05;;;;;;;2.83;2.63;;;19.10;90.80;;;;;;4938579;28;20565;-59
2023/07/29 05:44:31;;;;;;;2.90;2.60;;;19.10;90.80;;;;;;4936803;28;20122;-60
2023/07/29 05:46:57;;;;;;;2.67;2.47;;;19.20;90.80;;;;;;4938346;28;20355;-60
2023/07/29 05:49:23;;;;;;;3.03;2.50;;;19.20;90.80;;;;;;4936718;28;20570;-60
2023/07/29 05:51:48;;;;;;;3.05;2.67;;;19.30;90.70;;;;;;4939456;28;20032;-60
2023/07/29 05:54:14;;;;;;;4.63;2.80;;;19.20;90.70;;;;;;4937447;28;20115;-60
2023/07/29 05:56:39;;;;;;;3.55;2.60;;;19.30;90.70;;;;;;4919335;28;20122;-61
2023/07/29 05:59:05;;;;;;;2.95;2.65;;;19.30;90.70;;;;;;4937299;28;20074;-59
2023/07/29 06:01:30;;;;;;;3.72;2.65;;;19.30;90.70;;;;;;4936930;28;20534;-61
2023/07/29 06:03:56;;;;;;;3.42;3.03;;;19.40;90.80;;;;;;4936750;28;20043;-59
2023/07/29 06:06:23;;;;;;;4.57;2.78;;;19.40;90.80;;;;;;4937735;28;20036;-59
2023/07/29 06:08:49;;;;;;;2.65;2.45;;;19.50;90.80;;;;;;4937482;28;20039;-60
2023/07/29 06:11:15;;;;;;;4.70;2.65;;;19.50;90.80;;;;;;4938501;28;20043;-59
2023/07/29 06:13:40;;;;;;;2.55;2.35;;;19.60;90.80;;;;;;4935415;28;20093;-59
2023/07/29 06:16:06;;;;;;;3.55;2.83;;;19.60;90.80;;;;;;4935373;28;20467;-58
2023/07/29 06:18:31;;;;;;;3.53;2.70;;;19.60;90.80;;;;;;4936916;28;20046;-60
2023/07/29 06:20:57;;;;;;;2.92;2.65;;;19.70;90.70;;;;;;4938268;28;20040;-59
2023/07/29 06:23:23;;;;;;;2.72;2.53;;;19.80;90.80;;;;;;4936987;28;20591;-61
2023/07/29 06:25:48;;;;;;;3.35;2.83;;;19.80;90.80;;;;;;4938530;28;20035;-58
2023/07/29 06:28:14;;;;;;;3.20;2.90;;;19.80;90.70;;;;;;4936796;28;20073;-58
2023/07/29 06:30:40;;;;;;;3.35;2.60;;;19.90;90.60;;;;;;4934490;28;20549;-61
2023/07/29 06:33:06;;;;;;;2.92;2.72;;;19.90;90.60;;;;;;4935943;28;20101;-59
2023/07/29 06:35:31;;;;;;;4.93;2.75;;;19.90;90.60;;;;;;4939520;28;20028;-60
2023/07/29 06:37:57;;;;;;;2.83;2.58;;;20.00;90.60;;;;;;4939299;28;20035;-59
2023/07/29 06:40:22;;;;;;;2.78;2.45;;;20.00;90.70;;;;;;4937813;28;20035;-59
2023/07/29 06:42:48;;;;;;;4.07;3.00;;;20.10;90.70;;;;;;4935244;28;20046;-60
2023/07/29 06:45:15;;;;;;;3.03;2.70;;;20.10;90.70;;;;;;4935032;28;20043;-59
2023/07/29 06:47:41;;;;;;;3.95;2.97;;;20.20;90.70;;;;;;4936357;28;20047;-60
2023/07/29 06:50:07;;;;;;;3.55;3.25;;;20.30;90.90;;;;;;4936632;28;20035;-60
2023/07/29 06:52:32;;;;;;;3.58;2.97;;;20.30;90.80;;;;;;4935527;28;20054;-60
2023/07/29 06:54:58;;;;;;;3.22;2.95;;;20.40;90.80;;;;;;4938723;28;20575;-60
2023/07/29 06:57:24;;;;;;;4.28;2.92;;;20.40;90.70;;;;;;4935127;28;20039;-60
2023/07/29 06:59:49;;;;;;;3.35;3.00;;;20.50;90.60;;;;;;4935442;28;20035;-60
2023/07/29 07:02:15;;;;;;;3.78;2.80;;;20.50;90.50;;;;;;4936436;28;20106;-60
2023/07/29 07:04:40;;;;;;;4.47;3.17;;;20.60;90.50;;;;;;4937782;28;20122;-61
2023/07/29 07:07:06;;;;;;;4.32;3.13;;;20.60;90.50;;;;;;4937878;29;20067;-61
2023/07/29 07:09:31;;;;;;;2.80;2.60;;;20.70;90.40;;;;;;4939172;28;20093;-58
2023/07/29 07:11:57;;;;;;;3.20;2.90;;;20.70;90.40;;;;;;4927068;28;20035;-61
2023/07/29 07:14:22;;;;;;;2.97;2.78;;;20.70;90.60;;;;;;4927779;28;20035;-61
2023/07/29 07:16:48;;;;;;;3.83;3.30;;;20.80;90.70;;;;;;4931135;28;20059;-59
2023/07/29 07:19:14;;;;;;;4.60;3.20;;;20.80;90.60;;;;;;4934827;28;20100;-60
2023/07/29 07:21:40;;;;;;;3.33;3.03;;;20.90;90.60;;;;;;4937424;28;20038;-61
2023/07/29 07:24:05;;;;;;;3.42;3.00;;;21.00;90.60;;;;;;4935208;28;20091;-61
2023/07/29 07:26:31;;;;;;;3.83;3.35;;;21.00;90.60;;;;;;4934458;28;20274;-59
2023/07/29 07:28:57;;;;;;;4.50;3.20;;;21.10;90.50;;;;;;4932935;28;20044;-60
2023/07/29 07:31:22;;;;;;;3.50;3.17;;;21.20;90.50;;;;;;4934088;28;20051;-60
2023/07/29 07:33:48;;;;;;;4.03;3.13;;;21.30;90.40;;;;;;4935374;28;20047;-59
2023/07/29 07:36:13;;;;;;;2.97;2.70;;;21.30;90.40;;;;;;4932909;28;20044;-61
2023/07/29 07:38:39;;;;;;;3.17;2.80;;;21.40;90.80;;;;;;4931093;28;20035;-61
2023/07/29 07:41:04;;;;;;;5.05;3.10;;;21.50;90.40;;;;;;4936891;28;20040;-61
2023/07/29 07:43:30;;;;;;;3.83;3.08;;;21.60;90.30;;;;;;4936952;28;20522;-60
2023/07/29 07:46:00;;;;;;;3.25;2.97;;;21.70;90.40;;;;;;4934503;28;20182;-61
2023/07/29 07:48:26;;;;;;;5.15;2.92;;;21.80;90.40;;;;;;4934804;28;20066;-60
2023/07/29 07:50:52;;;;;;;3.30;2.88;;;21.80;90.30;;;;;;4937594;28;20373;-59
2023/07/29 07:53:17;;;;;;;3.42;3.00;;;21.90;90.20;;;;;;4934800;28;20186;-59
2023/07/29 07:55:43;;;;;;;4.53;3.13;;;21.90;90.20;;;;;;4942587;28;20047;-59
2023/07/29 07:58:08;;;;;;;6.40;2.78;;;22.00;90.10;;;;;;4929152;28;20039;-59
2023/07/29 08:00:34;;;;;;;3.20;2.90;;;22.20;90.00;;;;;;4940384;28;20074;-57
2023/07/29 08:03:00;;;;;;;3.15;2.85;;;22.20;90.00;;;;;;4939748;28;20039;-60
2023/07/29 08:05:25;;;;;;;3.35;2.92;;;22.30;89.90;;;;;;4938385;28;20111;-59
2023/07/29 08:07:51;;;;;;;3.20;2.90;;;22.40;89.90;;;;;;4934107;28;20035;-58
2023/07/29 08:10:16;;;;;;;3.40;3.05;;;22.50;89.50;;;;;;4937420;28;20027;-60
2023/07/29 08:12:42;;;;;;;4.43;3.10;;;22.70;89.50;;;;;;4935383;28;20043;-60
2023/07/29 08:15:08;;;;;;;3.30;3.00;;;22.70;89.30;;;;;;4940853;28;20035;-60
2023/07/29 08:17:33;;;;;;;3.42;3.13;;;22.80;88.70;;;;;;4936466;28;20036;-61
2023/07/29 08:19:59;;;;;;;4.18;3.03;;;22.80;88.50;;;;;;4935863;28;20036;-60
2023/07/29 08:22:24;;;;;;;3.63;3.00;;;23.00;89.00;;;;;;4939968;28;20046;-61
2023/07/29 08:24:50;;;;;;;3.88;3.05;;;23.00;88.10;;;;;;4940209;28;20090;-60
2023/07/29 08:27:15;;;;;;;3.40;3.10;;;23.10;88.30;;;;;;4940906;29;20508;-59
2023/07/29 08:29:41;;;;;;;3.50;2.75;;;23.20;88.70;;;;;;4939977;28;20049;-61
2023/07/29 08:32:07;;;;;;;3.50;2.85;;;23.30;87.70;;;;;;4938238;29;20490;-60
2023/07/29 08:34:32;;;;;;;3.53;2.80;;;23.40;87.00;;;;;;4938426;28;20043;-61
2023/07/29 08:36:59;;;;;;;3.00;2.80;;;23.50;86.20;;;;;;4941393;28;20027;-60
2023/07/29 08:39:25;;;;;;;4.00;2.83;;;23.60;85.90;;;;;;4940083;29;20040;-62
2023/07/29 08:42:11;;;;;;;3.10;2.80;;;23.60;85.00;;;;;;4941262;28;20046;-61
2023/07/29 08:44:44;;;;;;;2.95;2.70;;;23.70;83.60;;;;;;4939232;28;20039;-61
2023/07/29 08:47:10;;;;;;;2.50;2.30;;;23.70;83.30;;;;;;4940244;28;20039;-61
2023/07/29 08:49:38;;;;;;;2.55;2.28;;;23.70;83.50;;;;;;4940167;28;20047;-61
2023/07/29 08:52:04;;;;;;;2.85;2.65;;;23.70;83.60;;;;;;4940644;28;20042;-60
2023/07/29 08:54:30;;;;;;;3.80;2.40;;;23.70;83.60;;;;;;4934067;28;20098;-60
2023/07/29 08:56:56;;;;;;;2.40;2.20;;;23.70;83.60;;;;;;4933180;28;20040;-60
2023/07/29 08:59:23;;;;;;;2.97;2.28;;;23.80;83.30;;;;;;4934413;28;20035;-59
2023/07/29 09:01:49;;;;;;;5.53;2.33;;;23.80;82.70;;;;;;4932990;28;20031;-61
2023/07/29 09:04:15;;;;;;;2.58;2.38;;;23.80;82.00;;;;;;4937609;28;20074;-60
2023/07/29 09:06:43;;;;;;;5.30;2.53;;;23.90;81.90;;;;;;4938878;28;20043;-59
2023/07/29 09:09:09;;;;;;;2.92;2.33;;;23.90;81.90;;;;;;4938526;28;20027;-60
2023/07/29 09:11:35;;;;;;;4.78;3.03;;;23.90;82.20;;;;;;4938425;28;20035;-59
2023/07/29 09:14:01;;;;;;;6.80;2.88;;;23.90;82.20;;;;;;4938136;28;20040;-60
2023/07/29 09:16:27;;;;;;;3.25;2.95;;;23.90;82.10;;;;;;4937551;28;20470;-59
2023/07/29 09:18:52;;;;;;;3.03;2.75;;;24.00;81.90;;;;;;4936056;28;20043;-60
2023/07/29 09:21:24;;;;;;;3.15;2.88;;;24.00;81.30;;;;;;4938804;28;20031;-59
2023/07/29 09:23:50;;;;;;;3.13;2.72;;;24.00;81.00;;;;;;4936867;28;20039;-60
2023/07/29 09:26:26;;;;;;;3.15;2.85;;;24.10;81.00;;;;;;4938599;28;20388;-60
2023/07/29 09:28:56;;;;;;;3.65;2.95;;;24.10;80.40;;;;;;4938075;28;20512;-59
2023/07/29 09:31:23;;;;;;;3.00;2.80;;;24.10;80.30;;;;;;4936364;28;20036;-60
2023/07/29 09:33:49;;;;;;;3.10;2.80;;;24.10;80.60;;;;;;4938376;28;20044;-61
2023/07/29 09:36:14;;;;;;;2.83;2.63;;;24.10;81.40;;;;;;4939175;28;20249;-61
2023/07/29 09:38:40;;;;;;;3.50;3.20;;;24.20;81.50;;;;;;4936449;28;20299;-61
2023/07/29 09:41:06;;;;;;;6.38;3.10;;;24.30;81.50;;;;;;4937773;28;20143;-60
2023/07/29 09:43:33;;;;;;;4.63;2.97;;;24.40;80.60;;;;;;4938852;28;20556;-61
2023/07/29 09:46:03;;;;;;;2.90;2.70;;;24.40;79.70;;;;;;4937424;28;20495;-60
2023/07/29 09:48:36;;;;;;;2.90;2.50;;;24.40;77.50;;;;;;4936543;28;20220;-59
2023/07/29 09:51:15;;;;;;;2.60;2.40;;;24.40;78.70;;;;;;4934944;28;20043;-61
2023/07/29 09:53:47;;;;;;;4.22;2.45;;;24.50;77.60;;;;;;4937089;28;20515;-60
2023/07/29 09:56:14;;;;;;;2.33;2.22;;;24.60;77.80;;;;;;4936418;29;20269;-60
2023/07/29 09:58:39;;;;;;;2.50;2.30;;;24.70;77.90;;;;;;4939989;28;20039;-63
2023/07/29 10:01:08;;;;;;;2.42;2.22;;;24.70;77.00;;;;;;4940178;28;20075;-62
2023/07/29 10:03:36;;;;;;;4.32;2.10;;;24.80;74.20;;;;;;4936174;28;20087;-61
2023/07/29 10:06:03;;;;;;;4.55;2.15;;;24.90;75.10;;;;;;4936039;28;20039;-61
2023/07/29 10:08:35;;;;;;;2.80;2.15;;;25.00;75.90;;;;;;4938893;28;20035;-61
2023/07/29 10:11:01;;;;;;;2.28;2.03;;;25.10;75.00;;;;;;4937466;28;20047;-60
2023/07/29 10:13:27;;;;;;;1.73;1.63;;;25.10;75.30;;;;;;4923124;28;21053;-60
2023/07/29 10:15:57;;;;;;;2.58;2.35;;;25.20;74.80;;;;;;4920338;28;20051;-62
2023/07/29 10:18:23;;;;;;;2.13;1.95;;;25.30;73.70;;;;;;4935617;28;20035;-62
2023/07/29 10:20:52;;;;;;;5.82;2.40;;;25.40;74.30;;;;;;4942112;28;20040;-62
2023/07/29 10:23:18;;;;;;;2.53;2.20;;;25.40;73.20;;;;;;4938570;28;20079;-62
2023/07/29 10:25:52;;;;;;;3.05;2.20;;;25.50;73.40;;;;;;4938698;28;20051;-62
2023/07/29 10:28:20;;;;;;;4.13;2.42;;;25.50;72.70;;;;;;4938531;28;20043;-62
2023/07/29 10:30:46;;;;;;;2.65;2.45;;;25.50;72.90;;;;;;4935948;28;20502;-62
2023/07/29 10:33:12;;;;;;;2.45;2.20;;;25.70;72.30;;;;;;4937053;28;20046;-63
2023/07/29 10:35:38;;;;;;;2.38;2.17;;;25.70;71.60;;;;;;4939265;28;20039;-62
2023/07/29 10:38:04;;;;;;;2.40;2.25;;;25.80;71.20;;;;;;4941094;28;20122;-62
2023/07/29 10:41:00;;;;;;;2.60;2.40;;;25.80;71.30;;;;;;4934031;28;20075;-63
2023/07/29 10:43:38;;;;;;;2.28;2.08;;;25.90;67.90;;;;;;4939414;28;20035;-62
2023/07/29 10:46:17;;;;;;;4.03;2.20;;;25.90;70.00;;;;;;4937851;28;20040;-62
2023/07/29 10:48:44;;;;;;;2.95;2.10;;;26.00;68.80;;;;;;4936607;28;20042;-62
2023/07/29 10:51:26;;;;;;;2.13;1.92;;;26.10;69.90;;;;;;4937273;28;20047;-62
2023/07/29 10:54:14;;;;;;;4.72;1.98;;;26.20;65.70;;;;;;4941313;28;20040;-63
2023/07/29 10:56:58;;;;;;;4.00;2.13;;;26.20;66.00;;;;;;4939405;28;20047;-62
2023/07/29 10:59:35;;;;;;;2.07;1.80;;;26.20;68.90;;;;;;4939756;28;20082;-62
2023/07/29 11:02:02;;;;;;;2.08;1.88;;;26.00;69.70;;;;;;4937705;28;20028;-63
2023/07/29 11:04:30;;;;;;;2.20;1.58;;;25.80;69.70;;;;;;4939093;28;20031;-62
2023/07/29 11:07:08;;;;;;;3.78;1.30;;;25.60;70.10;;;;;;4941689;28;20043;-62
2023/07/29 11:09:51;;;;;;;2.17;1.73;;;25.30;71.00;;;;;;4941432;28;20032;-62
2023/07/29 11:12:47;;;;;;;2.42;1.70;;;25.10;71.90;;;;;;4943666;28;20055;-62
2023/07/29 11:15:18;;;;;;;1.95;1.75;;;24.90;75.60;;;;;;4941237;28;20031;-62
2023/07/29 11:17:50;;;;;;;2.90;1.60;;;24.70;74.90;;;;;;4940918;28;20583;-60
2023/07/29 11:20:17;;;;;;;3.55;2.10;;;24.50;76.00;;;;;;4941385;28;20043;-61
2023/07/29 11:22:43;;;;;;;2.70;1.63;;;24.40;77.20;;;;;;4942539;28;20047;-61
2023/07/29 11:25:11;;;;;;;3.47;2.00;;;24.30;77.50;;;;;;4945203;28;20031;-61
2023/07/29 11:27:37;;;;;;;2.30;2.03;;;24.30;78.40;;;;;;4944790;28;20035;-63
2023/07/29 11:30:05;;;;;;;3.30;2.00;;;24.20;79.00;;;;;;4944673;28;20058;-62
2023/07/29 11:32:32;;;;;;;2.20;2.00;;;24.20;79.30;;;;;;4944530;28;20126;-62
2023/07/29 11:35:05;;;;;;;2.25;2.05;;;24.20;79.20;;;;;;4945389;28;20058;-62
2023/07/29 11:37:32;;;;;;;2.75;2.15;;;24.20;79.10;;;;;;4944245;28;20111;-62
2023/07/29 11:39:58;;;;;;;2.35;2.17;;;24.30;78.90;;;;;;4945571;28;20390;-61
2023/07/29 11:42:24;;;;;;;3.78;2.30;;;24.30;79.30;;;;;;4939517;28;20042;-62
2023/07/29 11:44:49;;;;;;;2.17;2.00;;;24.40;79.40;;;;;;4943010;28;20414;-62
2023/07/29 11:47:15;;;;;;;2.20;2.00;;;24.40;79.10;;;;;;4940968;28;20046;-62
2023/07/29 11:49:41;;;;;;;2.40;2.20;;;24.50;78.90;;;;;;4944326;28;20070;-63
2023/07/29 11:52:09;;;;;;;2.45;2.15;;;24.70;78.20;;;;;;4942965;28;20156;-61
2023/07/29 11:54:38;;;;;;;2.10;1.90;;;24.80;77.00;;;;;;4942818;28;20032;-62
2023/07/29 11:57:08;;;;;;;2.25;2.05;;;24.90;76.10;;;;;;4943736;28;20030;-62
2023/07/29 11:59:35;;;;;;;2.33;1.90;;;25.00;75.70;;;;;;4942158;28;20035;-62
2023/07/29 12:02:04;;;;;;;3.13;2.10;;;25.10;74.50;;;;;;4941948;29;20031;-62
2023/07/29 12:04:30;;;;;;;2.10;2.00;;;25.20;74.30;;;;;;4942503;28;20039;-62
2023/07/29 12:06:56;;;;;;;3.58;1.88;;;25.40;73.80;;;;;;4943708;28;20492;-62
2023/07/29 12:09:22;;;;;;;2.38;2.17;;;25.50;73.30;;;;;;4943082;29;20102;-62
2023/07/29 12:11:48;;;;;;;2.72;1.90;;;25.60;72.90;;;;;;4944176;28;20131;-61
2023/07/29 12:14:15;;;;;;;2.40;2.20;;;25.70;72.80;;;;;;4941905;29;20081;-63
2023/07/29 12:16:44;;;;;;;2.20;2.00;;;25.90;73.80;;;;;;4941628;28;20086;-62
2023/07/29 12:19:14;;;;;;;2.85;2.08;;;26.00;71.50;;;;;;4943034;28;20027;-62
2023/07/29 12:21:41;;;;;;;4.47;2.05;;;26.10;69.30;;;;;;4941011;28;20039;-62
2023/07/29 12:24:07;;;;;;;1.67;1.58;;;26.30;68.90;;;;;;4941059;28;20047;-62
2023/07/29 12:26:33;;;;;;;1.60;1.50;;;26.30;68.90;;;;;;4941949;28;20106;-64
2023/07/29 12:28:59;;;;;;;2.20;1.67;;;26.40;66.70;;;;;;4941396;28;20500;-62
2023/07/29 12:31:34;;;;;;;1.60;1.50;;;26.40;64.80;;;;;;4942080;28;20138;-62
2023/07/29 12:34:00;;;;;;;1.98;1.77;;;26.30;63.10;;;;;;4941140;28;20138;-63
2023/07/29 12:36:46;;;;;;;1.80;1.70;;;26.30;65.20;;;;;;4940012;28;20163;-63
2023/07/29 12:39:19;;;;;;;2.42;1.50;;;26.30;63.60;;;;;;4942254;28;20042;-63
2023/07/29 12:41:45;;;;;;;1.77;1.50;;;26.30;63.00;;;;;;4939293;28;20035;-62
2023/07/29 12:44:11;;;;;;;1.67;1.58;;;26.30;63.20;;;;;;4941641;28;20342;-63
2023/07/29 12:46:36;;;;;;;2.58;1.75;;;26.30;63.30;;;;;;4941122;28;20039;-64
2023/07/29 12:49:02;;;;;;;1.35;1.23;;;26.30;62.60;;;;;;4941236;28;20071;-63